JST201 YSSY-NZAA
Flight info
| Callsign | JST201 |
|---|---|
| Flight time | 2h 36m |
| Altitude | 35000 |
| Route | EVONN L521 LUNBI |
| Aircraft | A320/M-SDE3FGHIRWY/LB1 |
Departure
| Time | 2026-05-07 00:05 |
|---|---|
| Airport | Sydney Kingsford Smith International Airport (YSSY) |
Arrival
| Time | 2026-05-07 02:41 |
|---|---|
| Airport | Auckland International Airport (NZAA) |
| Time | Latitude | Longitude | Altitude | Speed | Heading |
|---|---|---|---|---|---|
| 2026-05-06 23:25 | -33.94031 | 151.16460 | 30 ft | 0 kts | 345° |
| 2026-05-06 23:53 | -33.94039 | 151.16463 | 30 ft | 4 kts | 345° |
| 2026-05-06 23:53 | -33.94065 | 151.16471 | 30 ft | 4 kts | 347° |
| 2026-05-06 23:54 | -33.94092 | 151.16477 | 30 ft | 4 kts | 351° |
| 2026-05-06 23:54 | -33.94118 | 151.16480 | 30 ft | 4 kts | 2° |
| 2026-05-06 23:54 | -33.94143 | 151.16474 | 30 ft | 4 kts | 43° |
| 2026-05-06 23:54 | -33.94149 | 151.16466 | 30 ft | 0 kts | 74° |
| 2026-05-06 23:57 | -33.94147 | 151.16476 | 30 ft | 2 kts | 74° |
| 2026-05-06 23:57 | -33.94139 | 151.16507 | 30 ft | 5 kts | 74° |
| 2026-05-06 23:57 | -33.94127 | 151.16558 | 30 ft | 8 kts | 74° |
| 2026-05-06 23:57 | -33.94110 | 151.16630 | 30 ft | 10 kts | 74° |
| 2026-05-06 23:58 | -33.94088 | 151.16722 | 30 ft | 13 kts | 74° |
| 2026-05-06 23:58 | -33.94062 | 151.16835 | 30 ft | 15 kts | 74° |
| 2026-05-06 23:58 | -33.94030 | 151.16969 | 30 ft | 18 kts | 74° |
| 2026-05-06 23:58 | -33.93993 | 151.17123 | 30 ft | 14 kts | 73° |
| 2026-05-06 23:59 | -33.93978 | 151.17230 | 29 ft | 12 kts | 122° |
| 2026-05-06 23:59 | -33.94031 | 151.17241 | 29 ft | 8 kts | 169° |
| 2026-05-06 23:59 | -33.94097 | 151.17257 | 29 ft | 11 kts | 168° |
| 2026-05-06 23:59 | -33.94183 | 151.17279 | 28 ft | 14 kts | 168° |
| 2026-05-07 00:00 | -33.94280 | 151.17303 | 30 ft | 15 kts | 168° |
| 2026-05-07 00:00 | -33.94387 | 151.17333 | 30 ft | 17 kts | 168° |
| 2026-05-07 00:00 | -33.94510 | 151.17362 | 30 ft | 19 kts | 168° |
| 2026-05-07 00:00 | -33.94638 | 151.17420 | 30 ft | 21 kts | 173° |
| 2026-05-07 00:01 | -33.94791 | 151.17437 | 30 ft | 23 kts | 169° |
| 2026-05-07 00:01 | -33.94957 | 151.17480 | 29 ft | 26 kts | 167° |
| 2026-05-07 00:01 | -33.95141 | 151.17528 | 29 ft | 28 kts | 168° |
| 2026-05-07 00:01 | -33.95340 | 151.17579 | 29 ft | 30 kts | 168° |
| 2026-05-07 00:02 | -33.95552 | 151.17633 | 30 ft | 32 kts | 168° |
| 2026-05-07 00:02 | -33.95777 | 151.17690 | 30 ft | 34 kts | 168° |
| 2026-05-07 00:02 | -33.96014 | 151.17748 | 30 ft | 35 kts | 167° |
| 2026-05-07 00:02 | -33.96259 | 151.17817 | 30 ft | 37 kts | 166° |
| 2026-05-07 00:03 | -33.96406 | 151.17863 | 30 ft | 15 kts | 154° |
| 2026-05-07 00:03 | -33.96429 | 151.17979 | 30 ft | 17 kts | 76° |
| 2026-05-07 00:03 | -33.96350 | 151.18046 | 29 ft | 17 kts | 347° |
| 2026-05-07 00:03 | -33.96330 | 151.18040 | 29 ft | 2 kts | 347° |
| 2026-05-07 00:04 | -33.96260 | 151.18021 | 29 ft | 34 kts | 347° |
| 2026-05-07 00:04 | -33.95805 | 151.17902 | 28 ft | 96 kts | 348° |
| 2026-05-07 00:04 | -33.94989 | 151.17689 | 28 ft | 142 kts | 347° |
| 2026-05-07 00:04 | -33.93895 | 151.17391 | 49 ft | 178 kts | 345° |
| 2026-05-07 00:05 | -33.92667 | 151.17075 | 509 ft | 185 kts | 347° |
| 2026-05-07 00:05 | -33.91412 | 151.16793 | 1151 ft | 185 kts | 343° |
| 2026-05-07 00:05 | -33.90154 | 151.16477 | 1762 ft | 189 kts | 343° |
| 2026-05-07 00:05 | -33.88753 | 151.16369 | 1994 ft | 216 kts | 358° |
| 2026-05-07 00:06 | -33.87243 | 151.16979 | 2241 ft | 246 kts | 33° |
| 2026-05-07 00:06 | -33.86087 | 151.18594 | 2621 ft | 270 kts | 64° |
| 2026-05-07 00:06 | -33.85683 | 151.20842 | 3219 ft | 282 kts | 95° |
| 2026-05-07 00:06 | -33.86088 | 151.23153 | 3948 ft | 285 kts | 111° |
| 2026-05-07 00:07 | -33.86732 | 151.25427 | 4757 ft | 289 kts | 112° |
| 2026-05-07 00:07 | -33.87411 | 151.27720 | 5568 ft | 293 kts | 112° |
| 2026-05-07 00:07 | -33.88110 | 151.30040 | 6385 ft | 297 kts | 112° |
| 2026-05-07 00:07 | -33.88831 | 151.32387 | 7093 ft | 302 kts | 112° |
| 2026-05-07 00:08 | -33.89592 | 151.34776 | 7765 ft | 308 kts | 112° |
| 2026-05-07 00:08 | -33.90394 | 151.37160 | 8415 ft | 314 kts | 112° |
| 2026-05-07 00:08 | -33.91228 | 151.39612 | 9109 ft | 319 kts | 111° |
| 2026-05-07 00:08 | -33.92055 | 151.42117 | 9776 ft | 324 kts | 110° |
| 2026-05-07 00:09 | -33.92889 | 151.44678 | 10255 ft | 337 kts | 110° |
| 2026-05-07 00:09 | -33.93762 | 151.47400 | 10382 ft | 360 kts | 110° |
| 2026-05-07 00:09 | -33.94686 | 151.50281 | 10689 ft | 374 kts | 110° |
| 2026-05-07 00:09 | -33.95635 | 151.53226 | 11230 ft | 380 kts | 110° |
| 2026-05-07 00:10 | -33.96602 | 151.56221 | 11809 ft | 385 kts | 110° |
| 2026-05-07 00:10 | -33.97581 | 151.59241 | 12370 ft | 390 kts | 110° |
| 2026-05-07 00:10 | -33.98575 | 151.62305 | 12938 ft | 395 kts | 110° |
| 2026-05-07 00:10 | -33.99582 | 151.65404 | 13537 ft | 399 kts | 111° |
| 2026-05-07 00:11 | -34.00598 | 151.68535 | 14080 ft | 403 kts | 111° |
| 2026-05-07 00:11 | -34.01623 | 151.71704 | 14574 ft | 408 kts | 110° |
| 2026-05-07 00:11 | -34.02654 | 151.74907 | 15070 ft | 412 kts | 110° |
| 2026-05-07 00:11 | -34.03680 | 151.78106 | 15556 ft | 417 kts | 110° |
| 2026-05-07 00:12 | -34.04729 | 151.81380 | 16045 ft | 421 kts | 110° |
| 2026-05-07 00:12 | -34.05791 | 151.84695 | 16588 ft | 425 kts | 109° |
| 2026-05-07 00:12 | -34.06860 | 151.88037 | 17072 ft | 429 kts | 109° |
| 2026-05-07 00:12 | -34.07942 | 151.91410 | 17566 ft | 433 kts | 109° |
| 2026-05-07 00:13 | -34.09034 | 151.94817 | 18048 ft | 437 kts | 109° |
| 2026-05-07 00:13 | -34.10137 | 151.98255 | 18504 ft | 442 kts | 109° |
| 2026-05-07 00:13 | -34.11251 | 152.01731 | 18944 ft | 446 kts | 109° |
| 2026-05-07 00:13 | -34.12354 | 152.05186 | 19402 ft | 449 kts | 109° |
| 2026-05-07 00:14 | -34.13481 | 152.08727 | 19870 ft | 453 kts | 109° |
| 2026-05-07 00:14 | -34.14613 | 152.12288 | 20338 ft | 456 kts | 109° |
| 2026-05-07 00:14 | -34.15755 | 152.15878 | 20791 ft | 460 kts | 109° |
| 2026-05-07 00:14 | -34.16906 | 152.19497 | 21223 ft | 463 kts | 109° |
| 2026-05-07 00:15 | -34.18064 | 152.23146 | 21655 ft | 467 kts | 108° |
| 2026-05-07 00:15 | -34.19228 | 152.26822 | 22088 ft | 470 kts | 108° |
| 2026-05-07 00:15 | -34.20402 | 152.30527 | 22514 ft | 474 kts | 108° |
| 2026-05-07 00:15 | -34.21582 | 152.34256 | 22943 ft | 477 kts | 108° |
| 2026-05-07 00:16 | -34.22771 | 152.38017 | 23373 ft | 481 kts | 108° |
| 2026-05-07 00:16 | -34.23966 | 152.41807 | 23737 ft | 484 kts | 108° |
| 2026-05-07 00:16 | -34.25166 | 152.45621 | 24067 ft | 487 kts | 108° |
| 2026-05-07 00:16 | -34.26373 | 152.49467 | 24389 ft | 491 kts | 108° |
| 2026-05-07 00:17 | -34.27573 | 152.53291 | 24672 ft | 494 kts | 108° |
| 2026-05-07 00:17 | -34.28796 | 152.57178 | 25070 ft | 495 kts | 108° |
| 2026-05-07 00:17 | -34.30019 | 152.61076 | 25408 ft | 497 kts | 107° |
| 2026-05-07 00:17 | -34.31247 | 152.64999 | 25727 ft | 500 kts | 107° |
| 2026-05-07 00:18 | -34.32478 | 152.68940 | 26015 ft | 503 kts | 107° |
| 2026-05-07 00:18 | -34.33716 | 152.72915 | 26309 ft | 506 kts | 107° |
| 2026-05-07 00:18 | -34.34962 | 152.76918 | 26581 ft | 509 kts | 107° |
| 2026-05-07 00:18 | -34.36194 | 152.80889 | 26874 ft | 512 kts | 107° |
| 2026-05-07 00:19 | -34.37466 | 152.84987 | 27157 ft | 514 kts | 107° |
| 2026-05-07 00:19 | -34.38707 | 152.88986 | 27481 ft | 516 kts | 107° |
| 2026-05-07 00:19 | -34.39972 | 152.93066 | 27775 ft | 518 kts | 107° |
| 2026-05-07 00:19 | -34.41241 | 152.97159 | 28055 ft | 521 kts | 107° |
| 2026-05-07 00:20 | -34.42523 | 153.01288 | 28329 ft | 524 kts | 107° |
| 2026-05-07 00:20 | -34.43809 | 153.05438 | 28602 ft | 527 kts | 107° |
| 2026-05-07 00:20 | -34.45096 | 153.09612 | 28869 ft | 530 kts | 107° |
| 2026-05-07 00:20 | -34.46384 | 153.13800 | 29187 ft | 531 kts | 107° |
| 2026-05-07 00:21 | -34.47671 | 153.17986 | 29627 ft | 530 kts | 107° |
| 2026-05-07 00:21 | -34.48959 | 153.22175 | 30020 ft | 530 kts | 107° |
| 2026-05-07 00:21 | -34.50238 | 153.26359 | 30337 ft | 530 kts | 107° |
| 2026-05-07 00:21 | -34.51521 | 153.30553 | 30651 ft | 531 kts | 107° |
| 2026-05-07 00:22 | -34.52804 | 153.34752 | 30972 ft | 531 kts | 107° |
| 2026-05-07 00:22 | -34.54088 | 153.38950 | 31297 ft | 531 kts | 107° |
| 2026-05-07 00:22 | -34.55374 | 153.43155 | 31631 ft | 531 kts | 107° |
| 2026-05-07 00:22 | -34.56643 | 153.47318 | 31979 ft | 530 kts | 107° |
| 2026-05-07 00:23 | -34.57923 | 153.51518 | 32353 ft | 529 kts | 107° |
| 2026-05-07 00:23 | -34.59195 | 153.55710 | 32698 ft | 529 kts | 107° |
| 2026-05-07 00:23 | -34.60461 | 153.59896 | 33028 ft | 529 kts | 107° |
| 2026-05-07 00:23 | -34.61726 | 153.64094 | 33359 ft | 529 kts | 107° |
| 2026-05-07 00:24 | -34.62990 | 153.68291 | 33677 ft | 529 kts | 107° |
| 2026-05-07 00:24 | -34.64257 | 153.72491 | 33975 ft | 529 kts | 107° |
| 2026-05-07 00:24 | -34.65524 | 153.76692 | 34218 ft | 529 kts | 107° |
| 2026-05-07 00:24 | -34.66787 | 153.80881 | 34534 ft | 527 kts | 107° |
| 2026-05-07 00:25 | -34.68044 | 153.85055 | 34808 ft | 526 kts | 107° |
| 2026-05-07 00:25 | -34.69298 | 153.89232 | 34903 ft | 527 kts | 107° |
| 2026-05-07 00:25 | -34.71803 | 153.97629 | 34922 ft | 534 kts | 107° |
| 2026-05-07 00:26 | -34.74338 | 154.06130 | 34910 ft | 535 kts | 107° |
| 2026-05-07 00:26 | -34.76875 | 154.14617 | 34911 ft | 533 kts | 107° |
| 2026-05-07 00:27 | -34.79401 | 154.23100 | 34913 ft | 533 kts | 107° |
| 2026-05-07 00:27 | -34.81912 | 154.31595 | 34912 ft | 533 kts | 107° |
| 2026-05-07 00:28 | -34.84405 | 154.40091 | 34901 ft | 533 kts | 107° |
| 2026-05-07 00:28 | -34.86896 | 154.48583 | 34915 ft | 532 kts | 107° |
| 2026-05-07 00:29 | -34.89380 | 154.57007 | 34916 ft | 532 kts | 107° |
| 2026-05-07 00:30 | -34.94326 | 154.73974 | 34910 ft | 530 kts | 107° |
| 2026-05-07 00:30 | -34.96789 | 154.82443 | 34917 ft | 530 kts | 107° |
| 2026-05-07 00:31 | -34.99249 | 154.90908 | 34919 ft | 529 kts | 107° |
| 2026-05-07 00:31 | -35.01690 | 154.99367 | 34902 ft | 528 kts | 106° |
| 2026-05-07 00:32 | -35.04013 | 155.07852 | 34906 ft | 526 kts | 104° |
| 2026-05-07 00:32 | -35.06190 | 155.16370 | 34935 ft | 525 kts | 104° |
| 2026-05-07 00:33 | -35.08353 | 155.24880 | 34918 ft | 525 kts | 104° |
| 2026-05-07 00:33 | -35.10538 | 155.33322 | 34906 ft | 524 kts | 104° |
| 2026-05-07 00:34 | -35.12751 | 155.41813 | 34901 ft | 524 kts | 104° |
| 2026-05-07 00:34 | -35.14952 | 155.50309 | 34898 ft | 524 kts | 104° |
| 2026-05-07 00:35 | -35.17138 | 155.58827 | 34894 ft | 524 kts | 104° |
| 2026-05-07 00:35 | -35.19295 | 155.67282 | 34905 ft | 524 kts | 104° |
| 2026-05-07 00:36 | -35.21460 | 155.75785 | 34907 ft | 523 kts | 104° |
| 2026-05-07 00:36 | -35.23626 | 155.84286 | 34907 ft | 523 kts | 104° |
| 2026-05-07 00:37 | -35.25782 | 155.92775 | 34909 ft | 523 kts | 103° |
| 2026-05-07 00:37 | -35.27932 | 156.01281 | 34898 ft | 523 kts | 104° |
| 2026-05-07 00:38 | -35.30076 | 156.09785 | 34902 ft | 522 kts | 104° |
| 2026-05-07 00:38 | -35.32208 | 156.18231 | 34903 ft | 522 kts | 104° |
| 2026-05-07 00:39 | -35.34334 | 156.26722 | 34901 ft | 521 kts | 103° |
| 2026-05-07 00:39 | -35.36442 | 156.35217 | 34901 ft | 521 kts | 104° |
| 2026-05-07 00:40 | -35.38562 | 156.43722 | 34903 ft | 521 kts | 104° |
| 2026-05-07 00:40 | -35.40676 | 156.52241 | 34906 ft | 521 kts | 103° |
| 2026-05-07 00:41 | -35.42759 | 156.60700 | 34898 ft | 522 kts | 104° |
| 2026-05-07 00:41 | -35.44859 | 156.69227 | 34905 ft | 522 kts | 104° |
| 2026-05-07 00:42 | -35.46951 | 156.77756 | 34906 ft | 523 kts | 104° |
| 2026-05-07 00:42 | -35.49045 | 156.86314 | 34909 ft | 523 kts | 104° |
| 2026-05-07 00:43 | -35.51132 | 156.94866 | 34906 ft | 523 kts | 104° |
| 2026-05-07 00:43 | -35.53212 | 157.03419 | 34916 ft | 523 kts | 104° |
| 2026-05-07 00:44 | -35.55280 | 157.11977 | 34915 ft | 522 kts | 104° |
| 2026-05-07 00:44 | -35.57331 | 157.20480 | 34921 ft | 523 kts | 104° |
| 2026-05-07 00:45 | -35.59386 | 157.29038 | 34912 ft | 521 kts | 103° |
| 2026-05-07 00:45 | -35.61431 | 157.37576 | 34927 ft | 520 kts | 103° |
| 2026-05-07 00:46 | -35.63130 | 157.44664 | 34930 ft | 519 kts | 103° |
| 2026-05-07 00:46 | -35.65158 | 157.53183 | 34929 ft | 519 kts | 103° |
| 2026-05-07 00:47 | -35.67169 | 157.61679 | 34936 ft | 516 kts | 103° |
| 2026-05-07 00:47 | -35.69169 | 157.70151 | 34941 ft | 514 kts | 103° |
| 2026-05-07 00:48 | -35.71162 | 157.78600 | 34938 ft | 513 kts | 103° |
| 2026-05-07 00:48 | -35.73139 | 157.87024 | 34926 ft | 512 kts | 103° |
| 2026-05-07 00:49 | -35.75100 | 157.95387 | 34942 ft | 510 kts | 103° |
| 2026-05-07 00:49 | -35.77063 | 158.03773 | 34942 ft | 509 kts | 103° |
| 2026-05-07 00:50 | -35.78904 | 158.12176 | 34940 ft | 507 kts | 100° |
| 2026-05-07 00:50 | -35.80372 | 158.20647 | 34929 ft | 505 kts | 97° |
| 2026-05-07 00:51 | -35.81701 | 158.29135 | 34929 ft | 504 kts | 97° |
| 2026-05-07 00:51 | -35.83089 | 158.37603 | 34933 ft | 504 kts | 98° |
| 2026-05-07 00:52 | -35.84542 | 158.46051 | 34932 ft | 504 kts | 98° |
| 2026-05-07 00:52 | -35.85996 | 158.54504 | 34930 ft | 504 kts | 98° |
| 2026-05-07 00:53 | -35.87422 | 158.62953 | 34932 ft | 503 kts | 98° |
| 2026-05-07 00:53 | -35.88837 | 158.71413 | 34931 ft | 503 kts | 98° |
| 2026-05-07 00:54 | -35.90252 | 158.79868 | 34932 ft | 503 kts | 98° |
| 2026-05-07 00:54 | -35.91645 | 158.88270 | 34928 ft | 503 kts | 98° |
| 2026-05-07 00:55 | -35.93052 | 158.96729 | 34938 ft | 503 kts | 98° |
| 2026-05-07 00:55 | -35.94444 | 159.05183 | 34944 ft | 503 kts | 98° |
| 2026-05-07 00:56 | -35.95827 | 159.13641 | 34948 ft | 502 kts | 98° |
| 2026-05-07 00:56 | -35.97202 | 159.22100 | 34941 ft | 502 kts | 98° |
| 2026-05-07 00:57 | -35.98582 | 159.30552 | 34954 ft | 502 kts | 98° |
| 2026-05-07 00:57 | -35.99948 | 159.38993 | 34956 ft | 501 kts | 97° |
| 2026-05-07 00:58 | -36.01304 | 159.47435 | 34961 ft | 501 kts | 97° |
| 2026-05-07 00:58 | -36.02642 | 159.55812 | 34947 ft | 500 kts | 97° |
| 2026-05-07 00:59 | -36.04652 | 159.68438 | 34963 ft | 498 kts | 97° |
| 2026-05-07 01:00 | -36.05995 | 159.76861 | 34961 ft | 498 kts | 97° |
| 2026-05-07 01:00 | -36.07312 | 159.85257 | 34951 ft | 497 kts | 97° |
| 2026-05-07 01:01 | -36.08617 | 159.93638 | 34961 ft | 496 kts | 97° |
| 2026-05-07 01:01 | -36.09925 | 160.02003 | 34969 ft | 495 kts | 97° |
| 2026-05-07 01:02 | -36.11226 | 160.10362 | 34962 ft | 494 kts | 97° |
| 2026-05-07 01:02 | -36.12514 | 160.18652 | 34964 ft | 494 kts | 97° |
| 2026-05-07 01:03 | -36.13792 | 160.27003 | 34969 ft | 493 kts | 97° |
| 2026-05-07 01:03 | -36.15057 | 160.35333 | 34974 ft | 492 kts | 97° |
| 2026-05-07 01:04 | -36.16323 | 160.43657 | 34971 ft | 492 kts | 97° |
| 2026-05-07 01:04 | -36.17589 | 160.51983 | 34973 ft | 492 kts | 97° |
| 2026-05-07 01:05 | -36.18853 | 160.60299 | 34965 ft | 491 kts | 97° |
| 2026-05-07 01:05 | -36.20097 | 160.68612 | 34975 ft | 490 kts | 97° |
| 2026-05-07 01:06 | -36.21328 | 160.76853 | 34980 ft | 490 kts | 97° |
| 2026-05-07 01:06 | -36.22559 | 160.85145 | 34977 ft | 489 kts | 97° |
| 2026-05-07 01:07 | -36.23780 | 160.93437 | 34977 ft | 489 kts | 97° |
| 2026-05-07 01:07 | -36.24998 | 161.01711 | 34982 ft | 488 kts | 97° |
| 2026-05-07 01:08 | -36.26209 | 161.09978 | 34980 ft | 487 kts | 97° |
| 2026-05-07 01:08 | -36.27413 | 161.18252 | 34985 ft | 487 kts | 97° |
| 2026-05-07 01:09 | -36.28606 | 161.26515 | 34977 ft | 487 kts | 97° |
| 2026-05-07 01:09 | -36.29799 | 161.34771 | 34980 ft | 487 kts | 97° |
| 2026-05-07 01:10 | -36.30976 | 161.42977 | 34984 ft | 486 kts | 97° |
| 2026-05-07 01:10 | -36.32158 | 161.51233 | 34989 ft | 486 kts | 97° |
| 2026-05-07 01:11 | -36.33337 | 161.59493 | 34972 ft | 486 kts | 97° |
| 2026-05-07 01:11 | -36.34502 | 161.67748 | 34980 ft | 486 kts | 96° |
| 2026-05-07 01:12 | -36.35666 | 161.76002 | 34985 ft | 485 kts | 96° |
| 2026-05-07 01:12 | -36.36807 | 161.84205 | 34988 ft | 485 kts | 96° |
| 2026-05-07 01:13 | -36.37946 | 161.92466 | 34990 ft | 485 kts | 96° |
| 2026-05-07 01:13 | -36.39093 | 162.00726 | 34990 ft | 485 kts | 96° |
| 2026-05-07 01:14 | -36.40229 | 162.08985 | 34989 ft | 485 kts | 96° |
| 2026-05-07 01:14 | -36.41361 | 162.17246 | 34994 ft | 485 kts | 96° |
| 2026-05-07 01:15 | -36.42487 | 162.25510 | 34989 ft | 485 kts | 96° |
| 2026-05-07 01:15 | -36.43604 | 162.33778 | 34990 ft | 485 kts | 96° |
| 2026-05-07 01:16 | -36.44704 | 162.41996 | 34993 ft | 485 kts | 96° |
| 2026-05-07 01:16 | -36.45812 | 162.50258 | 34994 ft | 485 kts | 96° |
| 2026-05-07 01:17 | -36.46919 | 162.58533 | 35000 ft | 485 kts | 96° |
| 2026-05-07 01:17 | -36.48021 | 162.66789 | 34987 ft | 484 kts | 96° |
| 2026-05-07 01:18 | -36.49105 | 162.75034 | 34991 ft | 483 kts | 96° |
| 2026-05-07 01:18 | -36.50167 | 162.83222 | 34994 ft | 483 kts | 96° |
| 2026-05-07 01:19 | -36.51246 | 162.91474 | 34997 ft | 483 kts | 96° |
| 2026-05-07 01:19 | -36.52326 | 162.99724 | 34994 ft | 482 kts | 96° |
| 2026-05-07 01:20 | -36.53385 | 163.07971 | 34998 ft | 482 kts | 96° |
| 2026-05-07 01:20 | -36.54439 | 163.16210 | 35001 ft | 483 kts | 96° |
| 2026-05-07 01:21 | -36.55486 | 163.24453 | 35001 ft | 482 kts | 96° |
| 2026-05-07 01:21 | -36.56523 | 163.32643 | 34982 ft | 482 kts | 96° |
| 2026-05-07 01:22 | -36.57557 | 163.40881 | 34999 ft | 482 kts | 96° |
| 2026-05-07 01:22 | -36.58583 | 163.49111 | 35000 ft | 481 kts | 96° |
| 2026-05-07 01:23 | -36.59609 | 163.57340 | 34997 ft | 481 kts | 95° |
| 2026-05-07 01:23 | -36.60617 | 163.65518 | 34987 ft | 480 kts | 95° |
| 2026-05-07 01:24 | -36.61625 | 163.73730 | 34991 ft | 480 kts | 95° |
| 2026-05-07 01:24 | -36.62629 | 163.81942 | 34987 ft | 480 kts | 95° |
| 2026-05-07 01:25 | -36.63630 | 163.90160 | 34999 ft | 480 kts | 95° |
| 2026-05-07 01:25 | -36.64624 | 163.98384 | 35001 ft | 480 kts | 95° |
| 2026-05-07 01:26 | -36.65607 | 164.06602 | 34995 ft | 480 kts | 95° |
| 2026-05-07 01:26 | -36.66583 | 164.14766 | 35000 ft | 480 kts | 95° |
| 2026-05-07 01:27 | -36.67558 | 164.22993 | 35000 ft | 480 kts | 95° |
| 2026-05-07 01:27 | -36.68530 | 164.31223 | 35003 ft | 480 kts | 95° |
| 2026-05-07 01:28 | -36.69492 | 164.39449 | 34987 ft | 479 kts | 95° |
| 2026-05-07 01:28 | -36.70448 | 164.47666 | 34996 ft | 479 kts | 95° |
| 2026-05-07 01:29 | -36.71395 | 164.55885 | 34996 ft | 479 kts | 95° |
| 2026-05-07 01:29 | -36.72343 | 164.64060 | 35000 ft | 479 kts | 95° |
| 2026-05-07 01:30 | -36.73284 | 164.72286 | 34993 ft | 479 kts | 94° |
| 2026-05-07 01:30 | -36.74210 | 164.80504 | 34995 ft | 479 kts | 94° |
| 2026-05-07 01:31 | -36.75135 | 164.88724 | 35002 ft | 479 kts | 94° |
| 2026-05-07 01:31 | -36.76063 | 164.96951 | 35000 ft | 479 kts | 94° |
| 2026-05-07 01:32 | -36.76984 | 165.05177 | 34997 ft | 479 kts | 94° |
| 2026-05-07 01:32 | -36.77895 | 165.13407 | 34978 ft | 479 kts | 94° |
| 2026-05-07 01:33 | -36.78794 | 165.21637 | 34981 ft | 479 kts | 94° |
| 2026-05-07 01:33 | -36.79688 | 165.29818 | 34979 ft | 479 kts | 94° |
| 2026-05-07 01:34 | -36.80591 | 165.38068 | 34986 ft | 479 kts | 94° |
| 2026-05-07 01:34 | -36.81485 | 165.46318 | 34990 ft | 479 kts | 94° |
| 2026-05-07 01:35 | -36.82371 | 165.54563 | 34994 ft | 479 kts | 94° |
| 2026-05-07 01:35 | -36.83247 | 165.62810 | 34996 ft | 479 kts | 94° |
| 2026-05-07 01:36 | -36.84112 | 165.71003 | 34999 ft | 479 kts | 94° |
| 2026-05-07 01:36 | -36.84969 | 165.79256 | 34973 ft | 479 kts | 94° |
| 2026-05-07 01:37 | -36.85825 | 165.87508 | 34982 ft | 479 kts | 94° |
| 2026-05-07 01:37 | -36.86686 | 165.95756 | 34988 ft | 479 kts | 94° |
| 2026-05-07 01:38 | -36.87396 | 166.02616 | 34991 ft | 479 kts | 94° |
| 2026-05-07 01:38 | -36.88239 | 166.10876 | 34993 ft | 479 kts | 94° |
| 2026-05-07 01:39 | -36.89074 | 166.19132 | 34988 ft | 479 kts | 94° |
| 2026-05-07 01:39 | -36.89907 | 166.27390 | 34999 ft | 479 kts | 94° |
| 2026-05-07 01:40 | -36.90734 | 166.35643 | 34997 ft | 478 kts | 93° |
| 2026-05-07 01:40 | -36.91559 | 166.43903 | 34999 ft | 478 kts | 93° |
| 2026-05-07 01:41 | -36.92379 | 166.52151 | 34984 ft | 478 kts | 93° |
| 2026-05-07 01:41 | -36.93183 | 166.60340 | 34994 ft | 478 kts | 93° |
| 2026-05-07 01:42 | -36.93982 | 166.68582 | 35001 ft | 478 kts | 93° |
| 2026-05-07 01:42 | -36.94775 | 166.76823 | 35000 ft | 477 kts | 93° |
| 2026-05-07 01:43 | -36.95555 | 166.85069 | 35000 ft | 477 kts | 93° |
| 2026-05-07 01:43 | -36.96337 | 166.93314 | 34993 ft | 477 kts | 93° |
| 2026-05-07 01:44 | -36.97125 | 167.01560 | 34998 ft | 478 kts | 93° |
| 2026-05-07 01:44 | -36.97911 | 167.09809 | 34998 ft | 477 kts | 93° |
| 2026-05-07 01:45 | -36.98676 | 167.18042 | 35001 ft | 476 kts | 92° |
| 2026-05-07 01:45 | -36.99423 | 167.26273 | 34992 ft | 476 kts | 92° |
| 2026-05-07 01:46 | -37.00173 | 167.34448 | 35007 ft | 476 kts | 92° |
| 2026-05-07 01:46 | -37.00926 | 167.42665 | 35011 ft | 475 kts | 92° |
| 2026-05-07 01:47 | -37.01667 | 167.50873 | 35007 ft | 475 kts | 92° |
| 2026-05-07 01:47 | -37.02396 | 167.59092 | 35013 ft | 474 kts | 92° |
| 2026-05-07 01:48 | -37.03115 | 167.67297 | 35011 ft | 474 kts | 92° |
| 2026-05-07 01:48 | -37.03840 | 167.75461 | 35013 ft | 474 kts | 92° |
| 2026-05-07 01:49 | -37.04567 | 167.83670 | 35031 ft | 474 kts | 92° |
| 2026-05-07 01:49 | -37.05276 | 167.91880 | 35017 ft | 474 kts | 92° |
| 2026-05-07 01:50 | -37.05975 | 168.00085 | 34995 ft | 474 kts | 92° |
| 2026-05-07 01:50 | -37.06678 | 168.08315 | 34992 ft | 476 kts | 92° |
| 2026-05-07 01:51 | -37.07382 | 168.16559 | 35002 ft | 477 kts | 92° |
| 2026-05-07 01:51 | -37.08081 | 168.24825 | 35012 ft | 477 kts | 92° |
| 2026-05-07 01:52 | -37.08764 | 168.33047 | 34999 ft | 478 kts | 91° |
| 2026-05-07 01:52 | -37.09434 | 168.41338 | 35012 ft | 478 kts | 91° |
| 2026-05-07 01:53 | -37.10104 | 168.49630 | 35014 ft | 479 kts | 91° |
| 2026-05-07 01:53 | -37.10786 | 168.57942 | 35030 ft | 479 kts | 92° |
| 2026-05-07 01:54 | -37.11460 | 168.66260 | 35028 ft | 480 kts | 91° |
| 2026-05-07 01:54 | -37.12114 | 168.74586 | 35037 ft | 479 kts | 92° |
| 2026-05-07 01:55 | -37.12769 | 168.82897 | 35044 ft | 479 kts | 92° |
| 2026-05-07 01:55 | -37.13426 | 168.91154 | 35047 ft | 479 kts | 92° |
| 2026-05-07 01:56 | -37.14070 | 168.99463 | 35052 ft | 479 kts | 91° |
| 2026-05-07 01:56 | -37.14699 | 169.07767 | 35052 ft | 479 kts | 91° |
| 2026-05-07 01:57 | -37.15321 | 169.16071 | 35062 ft | 479 kts | 91° |
| 2026-05-07 01:57 | -37.15950 | 169.24374 | 35060 ft | 479 kts | 91° |
| 2026-05-07 01:58 | -37.16579 | 169.32689 | 35069 ft | 478 kts | 91° |
| 2026-05-07 01:58 | -37.17197 | 169.40992 | 35069 ft | 478 kts | 91° |
| 2026-05-07 01:59 | -37.17800 | 169.49303 | 35056 ft | 479 kts | 92° |
| 2026-05-07 01:59 | -37.18403 | 169.57626 | 35065 ft | 479 kts | 92° |
| 2026-05-07 02:00 | -37.19003 | 169.65949 | 35083 ft | 479 kts | 91° |
| 2026-05-07 02:00 | -37.19594 | 169.74288 | 35082 ft | 480 kts | 91° |
| 2026-05-07 02:01 | -37.20178 | 169.82624 | 35072 ft | 480 kts | 92° |
| 2026-05-07 02:01 | -37.20761 | 169.90975 | 35083 ft | 480 kts | 92° |
| 2026-05-07 02:02 | -37.21329 | 169.99271 | 35087 ft | 480 kts | 92° |
| 2026-05-07 02:02 | -37.21905 | 170.07620 | 35096 ft | 480 kts | 92° |
| 2026-05-07 02:03 | -37.22470 | 170.15972 | 35096 ft | 480 kts | 92° |
| 2026-05-07 02:03 | -37.23020 | 170.24322 | 35096 ft | 480 kts | 92° |
| 2026-05-07 02:04 | -37.23569 | 170.32677 | 35104 ft | 481 kts | 92° |
| 2026-05-07 02:04 | -37.24124 | 170.41048 | 35111 ft | 481 kts | 92° |
| 2026-05-07 02:05 | -37.24664 | 170.49422 | 35120 ft | 481 kts | 92° |
| 2026-05-07 02:05 | -37.25204 | 170.57797 | 35114 ft | 481 kts | 91° |
| 2026-05-07 02:06 | -37.25679 | 170.66110 | 35121 ft | 479 kts | 86° |
| 2026-05-07 02:06 | -37.25462 | 170.74436 | 35125 ft | 477 kts | 84° |
| 2026-05-07 02:07 | -37.25225 | 170.82769 | 35139 ft | 477 kts | 84° |
| 2026-05-07 02:07 | -37.24865 | 170.95258 | 35134 ft | 477 kts | 85° |
| 2026-05-07 02:08 | -37.24619 | 171.03523 | 35139 ft | 476 kts | 85° |
| 2026-05-07 02:08 | -37.24366 | 171.11831 | 35143 ft | 476 kts | 85° |
| 2026-05-07 02:09 | -37.24114 | 171.20138 | 35147 ft | 476 kts | 85° |
| 2026-05-07 02:09 | -37.23856 | 171.28448 | 35142 ft | 477 kts | 85° |
| 2026-05-07 02:10 | -37.23586 | 171.36766 | 35147 ft | 477 kts | 85° |
| 2026-05-07 02:10 | -37.23299 | 171.45103 | 35150 ft | 478 kts | 85° |
| 2026-05-07 02:11 | -37.23019 | 171.53377 | 35157 ft | 478 kts | 85° |
| 2026-05-07 02:11 | -37.22737 | 171.61713 | 35158 ft | 478 kts | 85° |
| 2026-05-07 02:12 | -37.22443 | 171.70041 | 35153 ft | 477 kts | 85° |
| 2026-05-07 02:12 | -37.22147 | 171.78364 | 35158 ft | 477 kts | 85° |
| 2026-05-07 02:13 | -37.21849 | 171.86674 | 35170 ft | 477 kts | 85° |
| 2026-05-07 02:13 | -37.21538 | 171.94903 | 34737 ft | 467 kts | 85° |
| 2026-05-07 02:14 | -37.21387 | 171.98949 | 34359 ft | 462 kts | 85° |
| 2026-05-07 02:14 | -37.21238 | 172.02918 | 33946 ft | 459 kts | 85° |
| 2026-05-07 02:14 | -37.21084 | 172.06898 | 33511 ft | 454 kts | 84° |
| 2026-05-07 02:14 | -37.20930 | 172.10835 | 33088 ft | 449 kts | 84° |
| 2026-05-07 02:15 | -37.20775 | 172.14736 | 32674 ft | 445 kts | 84° |
| 2026-05-07 02:15 | -37.20621 | 172.18598 | 32261 ft | 442 kts | 84° |
| 2026-05-07 02:15 | -37.20466 | 172.22454 | 31635 ft | 444 kts | 84° |
| 2026-05-07 02:15 | -37.20311 | 172.26317 | 31061 ft | 444 kts | 84° |
| 2026-05-07 02:16 | -37.20152 | 172.30204 | 30394 ft | 447 kts | 84° |
| 2026-05-07 02:16 | -37.19991 | 172.34092 | 29841 ft | 445 kts | 84° |
| 2026-05-07 02:16 | -37.19829 | 172.37963 | 29149 ft | 445 kts | 84° |
| 2026-05-07 02:16 | -37.19667 | 172.41806 | 28419 ft | 447 kts | 84° |
| 2026-05-07 02:17 | -37.19508 | 172.45690 | 27857 ft | 445 kts | 85° |
| 2026-05-07 02:17 | -37.19350 | 172.49551 | 27338 ft | 441 kts | 85° |
| 2026-05-07 02:17 | -37.19194 | 172.53381 | 26844 ft | 437 kts | 85° |
| 2026-05-07 02:17 | -37.19039 | 172.57169 | 26469 ft | 431 kts | 85° |
| 2026-05-07 02:18 | -37.18884 | 172.60855 | 26341 ft | 414 kts | 84° |
| 2026-05-07 02:18 | -37.18733 | 172.64403 | 26182 ft | 401 kts | 84° |
| 2026-05-07 02:18 | -37.18581 | 172.67851 | 25671 ft | 392 kts | 84° |
| 2026-05-07 02:18 | -37.18427 | 172.71246 | 25043 ft | 388 kts | 84° |
| 2026-05-07 02:19 | -37.18273 | 172.74602 | 24466 ft | 383 kts | 84° |
| 2026-05-07 02:19 | -37.18121 | 172.77926 | 23875 ft | 380 kts | 84° |
| 2026-05-07 02:19 | -37.17971 | 172.81218 | 23216 ft | 376 kts | 84° |
| 2026-05-07 02:19 | -37.17822 | 172.84482 | 22537 ft | 373 kts | 84° |
| 2026-05-07 02:20 | -37.17676 | 172.87679 | 21883 ft | 370 kts | 84° |
| 2026-05-07 02:20 | -37.17531 | 172.90891 | 21255 ft | 367 kts | 84° |
| 2026-05-07 02:20 | -37.17386 | 172.94084 | 20648 ft | 365 kts | 84° |
| 2026-05-07 02:20 | -37.17240 | 172.97249 | 20058 ft | 363 kts | 84° |
| 2026-05-07 02:21 | -37.17091 | 173.00396 | 19486 ft | 360 kts | 84° |
| 2026-05-07 02:21 | -37.16943 | 173.03526 | 18939 ft | 358 kts | 84° |
| 2026-05-07 02:21 | -37.16800 | 173.06640 | 18408 ft | 357 kts | 84° |
| 2026-05-07 02:21 | -37.16659 | 173.09735 | 17820 ft | 354 kts | 84° |
| 2026-05-07 02:22 | -37.16518 | 173.12811 | 17276 ft | 351 kts | 84° |
| 2026-05-07 02:22 | -37.16376 | 173.15854 | 16745 ft | 348 kts | 84° |
| 2026-05-07 02:22 | -37.16234 | 173.18866 | 16255 ft | 344 kts | 84° |
| 2026-05-07 02:22 | -37.16096 | 173.21804 | 15769 ft | 340 kts | 84° |
| 2026-05-07 02:23 | -37.15956 | 173.24755 | 15272 ft | 337 kts | 84° |
| 2026-05-07 02:23 | -37.15815 | 173.27670 | 14799 ft | 334 kts | 84° |
| 2026-05-07 02:23 | -37.15672 | 173.30560 | 14326 ft | 331 kts | 84° |
| 2026-05-07 02:23 | -37.15529 | 173.33427 | 13838 ft | 328 kts | 84° |
| 2026-05-07 02:24 | -37.15386 | 173.36270 | 13303 ft | 326 kts | 84° |
| 2026-05-07 02:24 | -37.15242 | 173.39089 | 12791 ft | 323 kts | 84° |
| 2026-05-07 02:24 | -37.15099 | 173.41885 | 12284 ft | 320 kts | 84° |
| 2026-05-07 02:24 | -37.14958 | 173.44664 | 11787 ft | 318 kts | 83° |
| 2026-05-07 02:25 | -37.14812 | 173.47415 | 11295 ft | 315 kts | 83° |
| 2026-05-07 02:25 | -37.14655 | 173.50141 | 10829 ft | 312 kts | 83° |
| 2026-05-07 02:25 | -37.14495 | 173.52813 | 10367 ft | 311 kts | 83° |
| 2026-05-07 02:25 | -37.14331 | 173.55510 | 10056 ft | 308 kts | 82° |
| 2026-05-07 02:26 | -37.14169 | 173.58167 | 9950 ft | 303 kts | 82° |
| 2026-05-07 02:26 | -37.14009 | 173.60799 | 9817 ft | 302 kts | 82° |
| 2026-05-07 02:26 | -37.13850 | 173.63415 | 9481 ft | 300 kts | 82° |
| 2026-05-07 02:26 | -37.13690 | 173.66016 | 9148 ft | 299 kts | 82° |
| 2026-05-07 02:27 | -37.13531 | 173.68607 | 8826 ft | 297 kts | 82° |
| 2026-05-07 02:27 | -37.13372 | 173.71176 | 8504 ft | 295 kts | 82° |
| 2026-05-07 02:27 | -37.13216 | 173.73732 | 8194 ft | 293 kts | 82° |
| 2026-05-07 02:27 | -37.13061 | 173.76269 | 7901 ft | 291 kts | 82° |
| 2026-05-07 02:28 | -37.12907 | 173.78791 | 7595 ft | 289 kts | 82° |
| 2026-05-07 02:28 | -37.12755 | 173.81297 | 7290 ft | 288 kts | 82° |
| 2026-05-07 02:28 | -37.12600 | 173.83788 | 7020 ft | 286 kts | 82° |
| 2026-05-07 02:28 | -37.12445 | 173.86261 | 6733 ft | 284 kts | 82° |
| 2026-05-07 02:29 | -37.12294 | 173.88707 | 6471 ft | 281 kts | 82° |
| 2026-05-07 02:29 | -37.12195 | 173.90326 | 6258 ft | 280 kts | 82° |
| 2026-05-07 02:29 | -37.12045 | 173.92756 | 5926 ft | 279 kts | 82° |
| 2026-05-07 02:29 | -37.11844 | 173.95950 | 5515 ft | 276 kts | 82° |
| 2026-05-07 02:30 | -37.11691 | 173.98340 | 5221 ft | 274 kts | 81° |
| 2026-05-07 02:30 | -37.11540 | 174.00708 | 5007 ft | 271 kts | 81° |
| 2026-05-07 02:30 | -37.11388 | 174.03076 | 4979 ft | 274 kts | 81° |
| 2026-05-07 02:30 | -37.11283 | 174.04684 | 4983 ft | 273 kts | 81° |
| 2026-05-07 02:31 | -37.11131 | 174.07048 | 4981 ft | 268 kts | 81° |
| 2026-05-07 02:31 | -37.10986 | 174.09350 | 4986 ft | 263 kts | 81° |
| 2026-05-07 02:31 | -37.10841 | 174.11604 | 4986 ft | 263 kts | 81° |
| 2026-05-07 02:31 | -37.10695 | 174.13876 | 4839 ft | 261 kts | 81° |
| 2026-05-07 02:32 | -37.10552 | 174.16148 | 4711 ft | 262 kts | 81° |
| 2026-05-07 02:32 | -37.10408 | 174.18420 | 4583 ft | 261 kts | 81° |
| 2026-05-07 02:32 | -37.10261 | 174.20675 | 4456 ft | 259 kts | 81° |
| 2026-05-07 02:32 | -37.10115 | 174.22922 | 4329 ft | 259 kts | 81° |
| 2026-05-07 02:33 | -37.09968 | 174.25168 | 4207 ft | 258 kts | 81° |
| 2026-05-07 02:33 | -37.09821 | 174.27402 | 4093 ft | 257 kts | 81° |
| 2026-05-07 02:33 | -37.09675 | 174.29629 | 3974 ft | 256 kts | 80° |
| 2026-05-07 02:33 | -37.09531 | 174.31840 | 3978 ft | 255 kts | 80° |
| 2026-05-07 02:34 | -37.09386 | 174.34052 | 3984 ft | 255 kts | 80° |
| 2026-05-07 02:34 | -37.09239 | 174.36262 | 3991 ft | 255 kts | 81° |
| 2026-05-07 02:34 | -37.09092 | 174.38475 | 3998 ft | 255 kts | 81° |
| 2026-05-07 02:34 | -37.08945 | 174.40683 | 3949 ft | 254 kts | 80° |
| 2026-05-07 02:35 | -37.08797 | 174.42882 | 3764 ft | 253 kts | 80° |
| 2026-05-07 02:35 | -37.08647 | 174.45068 | 3460 ft | 251 kts | 80° |
| 2026-05-07 02:35 | -37.08495 | 174.47237 | 3199 ft | 247 kts | 80° |
| 2026-05-07 02:35 | -37.08352 | 174.49345 | 3099 ft | 238 kts | 80° |
| 2026-05-07 02:36 | -37.08220 | 174.51340 | 2995 ft | 228 kts | 79° |
| 2026-05-07 02:36 | -37.08050 | 174.53240 | 2998 ft | 210 kts | 72° |
| 2026-05-07 02:36 | -37.07691 | 174.54946 | 3002 ft | 197 kts | 66° |
| 2026-05-07 02:36 | -37.07265 | 174.56564 | 3003 ft | 194 kts | 64° |
| 2026-05-07 02:37 | -37.06832 | 174.58153 | 2997 ft | 192 kts | 64° |
| 2026-05-07 02:37 | -37.06396 | 174.59742 | 2854 ft | 192 kts | 64° |
| 2026-05-07 02:37 | -37.05963 | 174.61323 | 2625 ft | 192 kts | 64° |
| 2026-05-07 02:37 | -37.05537 | 174.62879 | 2406 ft | 183 kts | 64° |
| 2026-05-07 02:38 | -37.05138 | 174.64339 | 2151 ft | 172 kts | 66° |
| 2026-05-07 02:38 | -37.04763 | 174.65708 | 1908 ft | 159 kts | 65° |
| 2026-05-07 02:38 | -37.04418 | 174.66963 | 1698 ft | 146 kts | 66° |
| 2026-05-07 02:38 | -37.04097 | 174.68130 | 1514 ft | 139 kts | 64° |
| 2026-05-07 02:39 | -37.03789 | 174.69248 | 1333 ft | 134 kts | 63° |
| 2026-05-07 02:39 | -37.03487 | 174.70344 | 1156 ft | 132 kts | 66° |
| 2026-05-07 02:39 | -37.03189 | 174.71422 | 989 ft | 131 kts | 65° |
| 2026-05-07 02:39 | -37.02893 | 174.72497 | 812 ft | 130 kts | 65° |
| 2026-05-07 02:40 | -37.02597 | 174.73571 | 650 ft | 131 kts | 64° |
| 2026-05-07 02:40 | -37.02299 | 174.74652 | 469 ft | 131 kts | 66° |
| 2026-05-07 02:40 | -37.02000 | 174.75722 | 264 ft | 130 kts | 66° |
| 2026-05-07 02:40 | -37.01712 | 174.76791 | 88 ft | 129 kts | 67° |
| 2026-05-07 02:41 | -37.01427 | 174.77803 | 26 ft | 113 kts | 70° |
| 2026-05-07 02:41 | -37.01261 | 174.78415 | 27 ft | 47 kts | 70° |
| 2026-05-07 02:41 | -37.01212 | 174.78587 | 25 ft | 18 kts | 70° |
| 2026-05-07 02:41 | -37.01174 | 174.78733 | 25 ft | 18 kts | 72° |
| 2026-05-07 02:42 | -37.01121 | 174.78872 | 29 ft | 18 kts | 59° |
| 2026-05-07 02:42 | -37.01042 | 174.78986 | 26 ft | 17 kts | 42° |
| 2026-05-07 02:42 | -37.00954 | 174.79084 | 25 ft | 17 kts | 41° |
| 2026-05-07 02:42 | -37.00848 | 174.79112 | 25 ft | 16 kts | 342° |
| 2026-05-07 02:43 | -37.00810 | 174.79092 | 31 ft | 7 kts | 332° |
| 2026-05-07 02:43 | -37.00762 | 174.79069 | 28 ft | 8 kts | 339° |
| 2026-05-07 02:43 | -37.00729 | 174.79055 | 25 ft | 5 kts | 343° |
| 2026-05-07 02:43 | -37.00724 | 174.79053 | 25 ft | 0 kts | 343° |